createdAt,value
2023-01-26T00:01:52.571Z,7.82
2023-01-26T00:04:19.400Z,7.63
2023-01-26T00:06:46.134Z,7.53
2023-01-26T00:09:14.391Z,7.54
2023-01-26T00:11:41.222Z,7.64
2023-01-26T00:14:07.991Z,7.68
2023-01-26T00:16:34.533Z,7.68
2023-01-26T00:19:01.456Z,7.71
2023-01-26T00:21:28.347Z,7.75
2023-01-26T00:23:54.937Z,7.81
2023-01-26T00:26:22.907Z,7.86
2023-01-26T00:28:49.600Z,7.90
2023-01-26T00:31:18.186Z,7.93
2023-01-26T00:33:44.924Z,7.95
2023-01-26T00:36:11.740Z,7.98
2023-01-26T00:38:38.593Z,7.99
2023-01-26T00:41:05.320Z,7.98
2023-01-26T00:43:31.986Z,7.97
2023-01-26T00:45:58.788Z,7.97
2023-01-26T00:48:25.427Z,7.97
2023-01-26T00:50:52.363Z,7.98
2023-01-26T00:53:18.979Z,7.99
2023-01-26T00:55:45.547Z,7.98
2023-01-26T00:58:12.345Z,7.97
2023-01-26T01:00:39.025Z,7.96
2023-01-26T01:03:05.966Z,7.95
2023-01-26T01:05:33.151Z,7.93
2023-01-26T01:07:59.820Z,7.92
2023-01-26T01:10:29.348Z,7.92
2023-01-26T01:12:56.806Z,7.93
2023-01-26T01:15:23.809Z,7.93
2023-01-26T01:17:50.541Z,7.93
2023-01-26T01:20:17.295Z,7.93
2023-01-26T01:22:43.924Z,7.93
2023-01-26T01:25:10.450Z,7.94
2023-01-26T01:27:37.188Z,7.93
2023-01-26T01:30:07.853Z,7.91
2023-01-26T01:32:35.224Z,7.89
2023-01-26T01:35:01.906Z,7.82
2023-01-26T01:37:29.082Z,7.80
2023-01-26T01:39:55.675Z,7.74
2023-01-26T01:42:22.641Z,7.72
2023-01-26T01:45:09.164Z,7.69
2023-01-26T01:47:35.726Z,7.66
2023-01-26T01:50:04.625Z,7.63
2023-01-26T01:52:31.518Z,7.63
2023-01-26T01:54:58.063Z,7.64
2023-01-26T01:57:28.830Z,7.64
2023-01-26T02:00:18.786Z,7.67
2023-01-26T02:03:06.164Z,7.67
2023-01-26T02:05:33.475Z,7.69
2023-01-26T02:08:00.346Z,7.68
2023-01-26T02:10:27.007Z,7.69
2023-01-26T02:12:59.794Z,7.69
2023-01-26T02:15:26.615Z,7.71
2023-01-26T02:17:53.498Z,7.72
2023-01-26T02:20:34.511Z,7.75
2023-01-26T02:23:01.235Z,7.73
2023-01-26T02:25:54.019Z,7.73
2023-01-26T02:28:25.144Z,7.67
2023-01-26T02:30:51.753Z,7.61
2023-01-26T02:33:22.075Z,7.52
2023-01-26T02:35:48.839Z,7.43
2023-01-26T02:38:15.647Z,7.38
2023-01-26T02:41:02.616Z,7.31
2023-01-26T02:43:29.405Z,7.17
2023-01-26T02:45:56.137Z,6.98
2023-01-26T02:48:41.632Z,6.86
2023-01-26T02:51:08.253Z,6.78
2023-01-26T02:53:34.965Z,6.67
2023-01-26T02:56:01.780Z,6.54
2023-01-26T02:58:28.371Z,6.48
2023-01-26T03:00:54.938Z,6.39
2023-01-26T03:03:23.106Z,6.30
2023-01-26T03:05:49.774Z,6.36
2023-01-26T03:08:16.357Z,6.46
2023-01-26T03:10:43.081Z,6.54
2023-01-26T03:13:09.685Z,6.62
2023-01-26T03:15:52.930Z,6.70
2023-01-26T03:18:38.299Z,6.76
2023-01-26T03:21:24.599Z,6.80
2023-01-26T03:24:10.159Z,6.82
2023-01-26T03:26:55.256Z,6.82
2023-01-26T03:29:21.952Z,6.80
2023-01-26T03:31:48.576Z,6.80
2023-01-26T03:34:15.377Z,6.83
2023-01-26T03:36:41.964Z,6.86
2023-01-26T03:39:08.516Z,6.88
2023-01-26T03:41:53.961Z,6.91
2023-01-26T03:44:39.313Z,6.89
2023-01-26T03:47:24.595Z,6.91
2023-01-26T03:50:09.825Z,6.92
2023-01-26T03:52:55.389Z,6.92
2023-01-26T03:55:40.649Z,6.89
2023-01-26T03:58:08.826Z,6.93
2023-01-26T04:00:35.404Z,6.92
2023-01-26T04:03:20.613Z,6.93
2023-01-26T04:06:15.742Z,6.93
2023-01-26T04:08:44.862Z,6.94
2023-01-26T04:11:11.422Z,6.95
2023-01-26T04:13:56.937Z,6.93
2023-01-26T04:16:42.161Z,6.93
2023-01-26T04:19:27.273Z,6.91
2023-01-26T04:21:53.921Z,6.92
2023-01-26T04:24:22.533Z,6.88
2023-01-26T04:26:49.396Z,6.86
2023-01-26T04:29:16.325Z,6.84
2023-01-26T04:31:43.043Z,6.82
2023-01-26T04:34:13.553Z,6.81
2023-01-26T04:36:40.284Z,6.79
2023-01-26T04:39:06.857Z,6.79
2023-01-26T04:41:34.345Z,6.78
2023-01-26T04:44:00.895Z,6.77
2023-01-26T04:46:27.519Z,6.76
2023-01-26T04:48:54.137Z,6.75
2023-01-26T04:51:21.432Z,6.71
2023-01-26T04:53:48.311Z,6.71
2023-01-26T04:56:22.925Z,6.71
2023-01-26T04:58:49.480Z,6.71
2023-01-26T05:01:16.192Z,6.73
2023-01-26T05:03:42.918Z,6.72
2023-01-26T05:06:09.561Z,6.74
2023-01-26T05:08:36.555Z,6.72
2023-01-26T05:11:03.340Z,6.71
2023-01-26T05:13:29.867Z,6.69
2023-01-26T05:15:56.420Z,6.69
2023-01-26T05:18:23.147Z,6.70
2023-01-26T05:20:49.707Z,6.69
2023-01-26T05:23:16.267Z,6.70
2023-01-26T05:25:43.030Z,6.68
2023-01-26T05:28:09.658Z,6.63
2023-01-26T05:30:36.316Z,6.60
2023-01-26T05:33:06.540Z,6.58
2023-01-26T05:35:33.186Z,6.55
2023-01-26T05:37:59.816Z,6.55
2023-01-26T05:40:26.459Z,6.54
2023-01-26T05:42:53.265Z,6.52
2023-01-26T05:45:20.025Z,6.50
2023-01-26T05:47:46.765Z,6.48
2023-01-26T05:50:13.694Z,6.46
2023-01-26T05:52:40.473Z,6.45
2023-01-26T05:55:07.387Z,6.45
2023-01-26T05:57:33.980Z,6.43
2023-01-26T06:00:03.508Z,6.43
2023-01-26T06:02:30.272Z,6.42
2023-01-26T06:04:56.939Z,6.44
2023-01-26T06:07:23.498Z,6.47
2023-01-26T06:09:50.252Z,6.48
2023-01-26T06:12:17.778Z,6.52
2023-01-26T06:14:46.974Z,6.55
2023-01-26T06:17:14.179Z,6.57
2023-01-26T06:19:40.774Z,6.57
2023-01-26T06:22:08.051Z,6.58
2023-01-26T06:24:34.840Z,6.62
2023-01-26T06:27:01.567Z,6.61
2023-01-26T06:29:28.235Z,6.61
2023-01-26T06:31:55.058Z,6.62
2023-01-26T06:34:22.110Z,6.62
2023-01-26T06:36:48.652Z,6.63
2023-01-26T06:39:17.132Z,6.66
2023-01-26T06:41:44.569Z,6.68
2023-01-26T06:44:11.268Z,6.70
2023-01-26T06:46:38.075Z,6.70
2023-01-26T06:49:04.721Z,6.71
2023-01-26T06:51:43.740Z,6.74
2023-01-26T06:54:10.760Z,6.77
2023-01-26T06:56:37.428Z,6.78
2023-01-26T06:59:04.531Z,6.77
2023-01-26T07:01:32.953Z,6.76
2023-01-26T07:03:59.847Z,6.72
2023-01-26T07:06:26.632Z,6.68
2023-01-26T07:08:53.202Z,6.58
2023-01-26T07:11:20.716Z,6.64
2023-01-26T07:13:47.587Z,6.61
2023-01-26T07:16:16.068Z,6.59
2023-01-26T07:18:42.823Z,6.54
2023-01-26T07:21:18.523Z,6.50
2023-01-26T07:23:45.572Z,6.47
2023-01-26T07:26:12.245Z,6.44
2023-01-26T07:28:40.408Z,6.38
2023-01-26T07:31:07.272Z,6.34
2023-01-26T07:33:34.099Z,5.72
2023-01-26T07:36:01.113Z,6.29
2023-01-26T07:38:29.400Z,6.29
2023-01-26T07:40:56.056Z,6.31
2023-01-26T07:43:22.827Z,6.32
2023-01-26T07:45:52.781Z,6.35
2023-01-26T07:48:19.855Z,6.37
2023-01-26T07:50:47.870Z,6.41
2023-01-26T07:53:15.463Z,6.45
2023-01-26T07:55:44.988Z,6.50
2023-01-26T07:58:11.814Z,6.58
2023-01-26T08:00:38.786Z,6.61
2023-01-26T08:03:05.549Z,6.66
2023-01-26T08:05:32.542Z,6.66
2023-01-26T08:07:59.851Z,6.65
2023-01-26T08:10:31.708Z,6.66
2023-01-26T08:13:01.504Z,6.64
2023-01-26T08:15:28.337Z,6.65
2023-01-26T08:17:55.379Z,6.67
2023-01-26T08:20:22.159Z,6.64
2023-01-26T08:22:48.911Z,6.62
2023-01-26T08:25:15.581Z,6.60
2023-01-26T08:27:42.228Z,6.60
2023-01-26T08:30:09.699Z,6.60
2023-01-26T08:32:36.610Z,6.64
2023-01-26T08:35:03.345Z,6.70
2023-01-26T08:37:29.993Z,6.75
2023-01-26T08:39:56.855Z,6.82
2023-01-26T08:42:23.529Z,6.89
2023-01-26T08:44:50.075Z,6.96
2023-01-26T08:47:16.699Z,6.99
2023-01-26T08:49:43.241Z,7.06
2023-01-26T08:52:09.810Z,7.09
2023-01-26T08:54:36.517Z,7.15
2023-01-26T08:57:03.159Z,7.20
2023-01-26T08:59:29.700Z,7.24
2023-01-26T09:01:56.450Z,7.28
2023-01-26T09:04:23.169Z,7.34
2023-01-26T09:06:49.780Z,7.50
2023-01-26T09:09:16.524Z,7.65
2023-01-26T09:11:43.060Z,7.77
2023-01-26T09:14:09.633Z,7.92
2023-01-26T09:16:36.405Z,8.10
2023-01-26T09:19:03.334Z,8.23
2023-01-26T09:21:29.897Z,8.39
2023-01-26T09:23:57.314Z,8.55
2023-01-26T09:26:24.250Z,8.73
2023-01-26T09:28:51.687Z,8.93
2023-01-26T09:31:18.460Z,9.11
2023-01-26T09:33:45.545Z,9.27
2023-01-26T09:36:12.472Z,9.40
2023-01-26T09:38:40.241Z,9.52
2023-01-26T09:41:13.050Z,9.65
2023-01-26T09:43:42.678Z,9.88
2023-01-26T09:46:27.729Z,10.17
2023-01-26T09:49:00.638Z,10.49
2023-01-26T09:51:40.263Z,10.80
2023-01-26T09:54:17.232Z,11.04
2023-01-26T09:56:43.780Z,11.48
2023-01-26T09:59:16.433Z,12.10
2023-01-26T10:01:49.959Z,12.77
2023-01-26T10:04:23.467Z,13.39
2023-01-26T10:06:51.499Z,14.06
2023-01-26T10:09:21.409Z,14.66
2023-01-26T10:12:13.176Z,15.20
2023-01-26T10:14:58.623Z,15.67
2023-01-26T10:17:25.285Z,16.08
2023-01-26T10:19:56.024Z,16.37
2023-01-26T10:22:27.829Z,16.69
2023-01-26T10:24:54.385Z,17.00
2023-01-26T10:27:22.566Z,17.28
2023-01-26T10:29:49.251Z,17.57
2023-01-26T10:32:16.619Z,17.82
2023-01-26T10:34:43.634Z,18.10
2023-01-26T10:37:28.882Z,18.29
2023-01-26T10:40:04.800Z,18.44
2023-01-26T10:42:31.994Z,18.60
2023-01-26T10:45:02.352Z,18.78
2023-01-26T10:47:30.276Z,18.90
2023-01-26T10:50:15.652Z,19.02
2023-01-26T10:52:56.498Z,19.18
2023-01-26T10:55:23.117Z,19.33
2023-01-26T10:57:49.733Z,19.50
2023-01-26T11:00:20.351Z,19.64
2023-01-26T11:02:50.860Z,19.82
2023-01-26T11:05:21.814Z,20.02
2023-01-26T11:07:53.035Z,20.23
2023-01-26T11:10:19.773Z,20.46
2023-01-26T11:12:46.761Z,20.71
2023-01-26T11:15:25.644Z,20.93
2023-01-26T11:17:56.814Z,21.17
2023-01-26T11:20:39.898Z,21.42
2023-01-26T11:23:12.654Z,21.66
2023-01-26T11:25:49.383Z,21.82
2023-01-26T11:28:34.683Z,21.93
2023-01-26T11:31:07.516Z,22.08
2023-01-26T11:33:37.147Z,22.24
2023-01-26T11:36:14.787Z,22.45
2023-01-26T11:38:42.097Z,22.67
2023-01-26T11:41:11.421Z,22.43
2023-01-26T11:43:39.814Z,23.06
2023-01-26T11:46:10.745Z,23.10
2023-01-26T11:48:43.435Z,23.10
2023-01-26T11:51:21.512Z,23.01
2023-01-26T11:54:01.873Z,23.05
2023-01-26T11:56:32.052Z,23.27
2023-01-26T11:59:02.546Z,23.47
2023-01-26T12:01:34.512Z,23.72
2023-01-26T12:04:01.143Z,23.69
2023-01-26T12:06:35.037Z,23.47
2023-01-26T12:09:25.022Z,23.03
2023-01-26T12:12:02.289Z,22.50
2023-01-26T12:14:32.009Z,22.32
2023-01-26T12:17:19.889Z,22.51
2023-01-26T12:20:07.473Z,22.64
2023-01-26T12:22:35.891Z,22.93
2023-01-26T12:25:24.759Z,23.03
2023-01-26T12:27:53.944Z,23.59
2023-01-26T12:30:41.899Z,23.68
2023-01-26T12:33:09.660Z,23.09
2023-01-26T12:35:57.409Z,22.45
2023-01-26T12:38:26.124Z,21.65
2023-01-26T12:40:55.508Z,20.97
2023-01-26T12:43:40.135Z,20.28
2023-01-26T12:46:06.757Z,19.61
2023-01-26T12:48:49.884Z,19.07
2023-01-26T12:51:26.632Z,18.54
2023-01-26T12:54:11.732Z,18.11
2023-01-26T12:56:42.699Z,17.70
2023-01-26T12:59:28.325Z,17.32
2023-01-26T13:02:30.269Z,16.93
2023-01-26T13:04:57.728Z,16.59
2023-01-26T13:07:28.562Z,16.33
2023-01-26T13:10:15.508Z,16.12
2023-01-26T13:12:49.507Z,15.90
2023-01-26T13:15:16.949Z,15.72
2023-01-26T13:17:57.873Z,15.58
2023-01-26T13:20:40.146Z,15.47
2023-01-26T13:23:26.640Z,15.38
2023-01-26T13:26:11.902Z,15.27
2023-01-26T13:28:40.294Z,15.30
2023-01-26T13:31:12.998Z,15.41
2023-01-26T13:33:40.476Z,15.45
2023-01-26T13:36:12.132Z,15.41
2023-01-26T13:38:43.420Z,15.32
2023-01-26T13:41:21.182Z,15.23
2023-01-26T13:43:52.541Z,15.18
2023-01-26T13:46:19.504Z,15.17
2023-01-26T13:48:56.078Z,15.11
2023-01-26T13:51:24.097Z,15.03
2023-01-26T13:53:55.007Z,14.95
2023-01-26T13:56:23.097Z,14.86
2023-01-26T13:58:52.302Z,14.79
2023-01-26T14:01:19.003Z,14.73
2023-01-26T14:03:45.717Z,14.71
2023-01-26T14:06:14.843Z,14.68
2023-01-26T14:08:52.874Z,14.65
2023-01-26T14:11:22.732Z,14.57
2023-01-26T14:13:53.184Z,14.50
2023-01-26T14:16:35.186Z,14.46
2023-01-26T14:19:15.221Z,14.41
2023-01-26T14:21:45.184Z,14.37
2023-01-26T14:24:12.021Z,14.30
2023-01-26T14:26:40.665Z,14.21
2023-01-26T14:29:27.798Z,14.14
2023-01-26T14:31:55.080Z,14.08
2023-01-26T14:34:22.713Z,14.05
2023-01-26T14:36:49.496Z,14.05
2023-01-26T14:39:17.005Z,14.05
2023-01-26T14:41:46.089Z,14.02
2023-01-26T14:44:12.915Z,13.99
2023-01-26T14:47:00.084Z,13.94
2023-01-26T14:49:43.679Z,13.88
2023-01-26T14:52:42.353Z,13.86
2023-01-26T14:55:23.858Z,13.80
2023-01-26T14:57:52.116Z,13.76
2023-01-26T15:00:29.204Z,13.73
2023-01-26T15:02:56.351Z,13.72
2023-01-26T15:05:23.791Z,13.69
2023-01-26T15:08:03.023Z,13.66
2023-01-26T15:10:42.626Z,13.68
2023-01-26T15:13:16.727Z,13.63
2023-01-26T15:15:50.402Z,13.65
2023-01-26T15:18:18.439Z,13.59
2023-01-26T15:20:50.675Z,13.59
2023-01-26T15:23:37.673Z,13.57
2023-01-26T15:26:14.498Z,13.57
2023-01-26T15:28:41.164Z,13.57
2023-01-26T15:31:08.230Z,13.58
2023-01-26T15:33:40.693Z,13.58
2023-01-26T15:36:18.869Z,13.59
2023-01-26T15:38:45.442Z,13.58
2023-01-26T15:41:13.856Z,13.56
2023-01-26T15:43:40.414Z,13.53
2023-01-26T15:46:08.145Z,13.49
2023-01-26T15:48:37.296Z,13.49
2023-01-26T15:51:03.874Z,13.45
2023-01-26T15:53:32.076Z,13.44
2023-01-26T15:56:01.072Z,13.40
2023-01-26T15:58:29.115Z,13.36
2023-01-26T16:00:55.700Z,13.34
2023-01-26T16:03:22.700Z,13.33
2023-01-26T16:05:49.424Z,13.35
2023-01-26T16:08:16.610Z,13.36
2023-01-26T16:10:45.417Z,13.40
2023-01-26T16:13:13.274Z,13.44
2023-01-26T16:15:41.795Z,13.48
2023-01-26T16:18:11.124Z,13.51
2023-01-26T16:20:38.896Z,13.52
2023-01-26T16:23:24.969Z,13.53
2023-01-26T16:25:54.142Z,13.53
2023-01-26T16:28:21.321Z,13.52
2023-01-26T16:30:48.411Z,13.49
2023-01-26T16:33:15.970Z,13.45
2023-01-26T16:35:47.712Z,13.43
2023-01-26T16:38:14.279Z,13.38
2023-01-26T16:40:41.391Z,13.34
2023-01-26T16:43:28.108Z,13.29
2023-01-26T16:45:57.288Z,13.23
2023-01-26T16:48:27.115Z,13.17
2023-01-26T16:50:53.855Z,13.11
2023-01-26T16:53:24.571Z,13.07
2023-01-26T16:55:51.237Z,13.01
2023-01-26T16:58:17.857Z,12.95
2023-01-26T17:00:51.704Z,12.91
2023-01-26T17:03:18.562Z,12.86
2023-01-26T17:05:46.581Z,12.82
2023-01-26T17:08:13.188Z,12.75
2023-01-26T17:10:48.936Z,12.73
2023-01-26T17:13:26.312Z,12.70
2023-01-26T17:15:54.010Z,12.66
2023-01-26T17:18:20.841Z,12.61
2023-01-26T17:20:52.169Z,12.57
2023-01-26T17:23:18.843Z,12.53
2023-01-26T17:25:45.497Z,12.49
2023-01-26T17:28:13.148Z,12.45
2023-01-26T17:30:42.614Z,12.41
2023-01-26T17:33:10.743Z,12.37
2023-01-26T17:35:37.449Z,12.32
2023-01-26T17:38:04.144Z,12.28
2023-01-26T17:40:34.874Z,12.25
2023-01-26T17:43:01.449Z,12.21
2023-01-26T17:45:29.057Z,12.17
2023-01-26T17:47:55.696Z,12.13
2023-01-26T17:50:24.080Z,12.09
2023-01-26T17:52:52.192Z,12.05
2023-01-26T17:55:21.034Z,12.02
2023-01-26T17:57:47.813Z,12.00
2023-01-26T18:00:14.775Z,11.95
2023-01-26T18:02:41.411Z,11.92
2023-01-26T18:07:49.325Z,11.88
2023-01-26T18:10:17.485Z,11.85
2023-01-26T18:12:44.044Z,11.84
2023-01-26T18:15:12.227Z,11.81
2023-01-26T18:17:39.041Z,11.79
2023-01-26T18:20:09.112Z,11.76
2023-01-26T18:22:37.681Z,11.72
2023-01-26T18:25:04.473Z,11.70
2023-01-26T18:27:33.980Z,11.67
2023-01-26T18:30:02.558Z,11.65
2023-01-26T18:32:29.134Z,11.60
2023-01-26T18:34:55.728Z,11.59
2023-01-26T18:37:24.798Z,11.41
2023-01-26T18:39:51.398Z,11.52
2023-01-26T18:42:18.015Z,11.51
2023-01-26T18:44:46.701Z,11.49
2023-01-26T18:47:13.621Z,11.47
2023-01-26T18:49:40.227Z,11.45
2023-01-26T18:52:09.677Z,11.44
2023-01-26T18:54:36.584Z,11.44
2023-01-26T18:57:03.112Z,11.43
2023-01-26T18:59:29.848Z,11.41
2023-01-26T19:01:56.567Z,11.39
2023-01-26T19:04:23.202Z,11.37
2023-01-26T19:06:51.122Z,11.37
2023-01-26T19:09:21.929Z,11.36
2023-01-26T19:11:48.537Z,11.36
2023-01-26T19:14:16.641Z,11.34
2023-01-26T19:16:44.204Z,11.33
2023-01-26T19:19:13.246Z,11.32
2023-01-26T19:21:39.834Z,11.30
2023-01-26T19:24:09.589Z,11.27
2023-01-26T19:26:39.029Z,11.26
2023-01-26T19:29:07.173Z,11.23
2023-01-26T19:31:34.959Z,11.18
2023-01-26T19:34:02.639Z,11.13
2023-01-26T19:36:29.779Z,11.11
2023-01-26T19:38:56.497Z,11.09
2023-01-26T19:41:23.206Z,11.07
2023-01-26T19:43:50.554Z,11.05
2023-01-26T19:46:17.295Z,11.03
2023-01-26T19:48:44.077Z,11.01
2023-01-26T19:51:11.701Z,11.00
2023-01-26T19:53:39.298Z,10.99
2023-01-26T19:56:09.795Z,10.97
2023-01-26T19:58:36.658Z,10.95
2023-01-26T20:01:12.652Z,10.93
2023-01-26T20:03:39.416Z,10.90
2023-01-26T20:06:06.192Z,10.88
2023-01-26T20:08:32.935Z,10.86
2023-01-26T20:11:06.116Z,10.84
2023-01-26T20:13:33.145Z,10.79
2023-01-26T20:15:59.845Z,10.78
2023-01-26T20:18:26.845Z,10.76
2023-01-26T20:20:53.980Z,10.73
2023-01-26T20:23:21.288Z,10.73
2023-01-26T20:25:47.979Z,10.70
2023-01-26T20:28:14.856Z,10.67
2023-01-26T20:30:41.626Z,10.64
2023-01-26T20:33:08.225Z,10.63
2023-01-26T20:35:35.297Z,10.62
2023-01-26T20:38:01.932Z,10.60
2023-01-26T20:40:29.199Z,10.59
2023-01-26T20:42:55.973Z,10.59
2023-01-26T20:45:24.154Z,10.57
2023-01-26T20:47:51.144Z,9.96
2023-01-26T20:50:17.871Z,10.53
2023-01-26T20:52:44.655Z,10.52
2023-01-26T20:55:13.334Z,10.49
2023-01-26T20:57:40.199Z,10.45
2023-01-26T21:00:07.360Z,10.43
2023-01-26T21:02:33.914Z,10.40
2023-01-26T21:05:00.964Z,10.40
2023-01-26T21:07:28.811Z,10.38
2023-01-26T21:09:55.467Z,10.38
2023-01-26T21:12:22.340Z,10.38
2023-01-26T21:14:48.946Z,10.37
2023-01-26T21:17:20.328Z,10.37
2023-01-26T21:19:46.994Z,10.38
2023-01-26T21:22:13.555Z,10.36
2023-01-26T21:24:40.180Z,10.35
2023-01-26T21:27:07.143Z,10.35
2023-01-26T21:29:33.824Z,10.35
2023-01-26T21:32:00.404Z,10.33
2023-01-26T21:34:27.503Z,10.33
2023-01-26T21:36:54.154Z,10.33
2023-01-26T21:39:22.220Z,10.32
2023-01-26T21:41:59.082Z,10.31
2023-01-26T21:44:27.895Z,10.31
2023-01-26T21:46:56.106Z,10.30
2023-01-26T21:49:23.108Z,10.30
2023-01-26T21:52:08.520Z,10.30
2023-01-26T21:54:35.539Z,10.29
2023-01-26T21:57:02.558Z,10.28
2023-01-26T21:59:29.386Z,10.26
2023-01-26T22:01:56.452Z,10.25
2023-01-26T22:04:24.048Z,10.23
2023-01-26T22:06:50.890Z,10.23
2023-01-26T22:09:17.743Z,10.19
2023-01-26T22:11:44.547Z,10.18
2023-01-26T22:14:21.809Z,10.17
2023-01-26T22:16:48.797Z,10.15
2023-01-26T22:19:15.748Z,10.13
2023-01-26T22:21:42.437Z,10.11
2023-01-26T22:24:11.803Z,10.09
2023-01-26T22:26:38.701Z,10.08
2023-01-26T22:29:05.399Z,10.06
2023-01-26T22:31:32.124Z,10.04
2023-01-26T22:33:59.076Z,10.01
2023-01-26T22:36:26.042Z,9.99
2023-01-26T22:38:53.308Z,9.96
2023-01-26T22:41:23.389Z,9.92
2023-01-26T22:43:50.688Z,9.90
2023-01-26T22:46:17.843Z,9.87
2023-01-26T22:48:44.506Z,9.86
2023-01-26T22:51:12.158Z,9.86
2023-01-26T22:53:38.959Z,9.85
2023-01-26T22:56:05.820Z,9.87
2023-01-26T22:58:33.374Z,9.89
2023-01-26T23:01:04.132Z,9.91
2023-01-26T23:03:30.842Z,9.93
2023-01-26T23:06:04.257Z,9.95
2023-01-26T23:08:31.007Z,9.98
2023-01-26T23:11:05.049Z,10.01
2023-01-26T23:13:31.709Z,10.01
2023-01-26T23:16:01.224Z,10.00
2023-01-26T23:18:29.247Z,9.99
2023-01-26T23:20:56.073Z,9.97
2023-01-26T23:23:22.768Z,9.96
2023-01-26T23:25:52.515Z,9.94
2023-01-26T23:28:21.685Z,9.90
2023-01-26T23:30:48.797Z,9.87
2023-01-26T23:33:15.855Z,9.83
2023-01-26T23:35:42.651Z,9.82
2023-01-26T23:38:09.474Z,9.81
2023-01-26T23:40:36.116Z,9.79
2023-01-26T23:43:15.795Z,9.78
2023-01-26T23:45:44.087Z,9.79
2023-01-26T23:48:10.652Z,9.79
2023-01-26T23:50:37.184Z,9.79
2023-01-26T23:53:03.929Z,9.78
2023-01-26T23:55:30.468Z,9.77
2023-01-26T23:57:59.071Z,9.76
